sensor_id;sensor_type;location;lat;lon;timestamp;P1;durP1;ratioP1;P2;durP2;ratioP2
81627;SDS011;71036;51.102;6.514;2023-08-06T00:00:19;6.90;;;1.93;;
81627;SDS011;71036;51.102;6.514;2023-08-06T00:02:44;4.07;;;2.37;;
81627;SDS011;71036;51.102;6.514;2023-08-06T00:05:10;3.73;;;2.17;;
81627;SDS011;71036;51.102;6.514;2023-08-06T00:07:35;5.13;;;2.67;;
81627;SDS011;71036;51.102;6.514;2023-08-06T00:10:00;4.67;;;2.30;;
81627;SDS011;71036;51.102;6.514;2023-08-06T00:12:25;5.10;;;2.40;;
81627;SDS011;71036;51.102;6.514;2023-08-06T00:14:51;5.77;;;2.53;;
81627;SDS011;71036;51.102;6.514;2023-08-06T00:17:17;5.37;;;2.57;;
81627;SDS011;71036;51.102;6.514;2023-08-06T00:19:42;9.33;;;2.50;;
81627;SDS011;71036;51.102;6.514;2023-08-06T00:22:07;6.47;;;3.60;;
81627;SDS011;71036;51.102;6.514;2023-08-06T00:24:33;9.03;;;2.17;;
81627;SDS011;71036;51.102;6.514;2023-08-06T00:26:59;3.17;;;2.00;;
81627;SDS011;71036;51.102;6.514;2023-08-06T00:29:24;4.63;;;2.57;;
81627;SDS011;71036;51.102;6.514;2023-08-06T00:31:50;4.07;;;2.90;;
81627;SDS011;71036;51.102;6.514;2023-08-06T00:34:15;5.43;;;2.73;;
81627;SDS011;71036;51.102;6.514;2023-08-06T00:36:40;3.80;;;2.17;;
81627;SDS011;71036;51.102;6.514;2023-08-06T00:39:05;8.57;;;2.53;;
81627;SDS011;71036;51.102;6.514;2023-08-06T00:41:32;3.93;;;2.67;;
81627;SDS011;71036;51.102;6.514;2023-08-06T00:43:57;6.00;;;2.30;;
81627;SDS011;71036;51.102;6.514;2023-08-06T00:46:22;6.60;;;2.73;;
81627;SDS011;71036;51.102;6.514;2023-08-06T00:48:48;6.97;;;3.27;;
81627;SDS011;71036;51.102;6.514;2023-08-06T00:51:15;10.83;;;2.70;;
81627;SDS011;71036;51.102;6.514;2023-08-06T00:53:40;3.47;;;2.00;;
81627;SDS011;71036;51.102;6.514;2023-08-06T00:56:06;4.53;;;2.60;;
81627;SDS011;71036;51.102;6.514;2023-08-06T00:58:32;5.93;;;2.60;;
81627;SDS011;71036;51.102;6.514;2023-08-06T01:00:58;4.50;;;2.03;;
81627;SDS011;71036;51.102;6.514;2023-08-06T01:03:24;2.40;;;1.87;;
81627;SDS011;71036;51.102;6.514;2023-08-06T01:05:49;4.50;;;1.73;;
81627;SDS011;71036;51.102;6.514;2023-08-06T01:08:31;3.67;;;2.00;;
81627;SDS011;71036;51.102;6.514;2023-08-06T01:16:53;2.90;;;1.90;;
81627;SDS011;71036;51.102;6.514;2023-08-06T01:19:20;3.33;;;1.40;;
81627;SDS011;71036;51.102;6.514;2023-08-06T01:21:46;7.63;;;2.13;;
81627;SDS011;71036;51.102;6.514;2023-08-06T01:24:11;3.70;;;2.10;;
81627;SDS011;71036;51.102;6.514;2023-08-06T01:26:48;3.40;;;1.80;;
81627;SDS011;71036;51.102;6.514;2023-08-06T01:31:53;5.57;;;2.40;;
81627;SDS011;71036;51.102;6.514;2023-08-06T01:34:21;3.37;;;1.90;;
81627;SDS011;71036;51.102;6.514;2023-08-06T01:36:48;4.80;;;2.40;;
81627;SDS011;71036;51.102;6.514;2023-08-06T01:39:15;9.33;;;2.03;;
81627;SDS011;71036;51.102;6.514;2023-08-06T01:41:40;3.53;;;1.97;;
81627;SDS011;71036;51.102;6.514;2023-08-06T01:44:05;6.73;;;1.80;;
81627;SDS011;71036;51.102;6.514;2023-08-06T01:46:30;4.23;;;1.87;;
81627;SDS011;71036;51.102;6.514;2023-08-06T01:48:56;2.90;;;1.90;;
81627;SDS011;71036;51.102;6.514;2023-08-06T01:51:21;2.83;;;1.40;;
81627;SDS011;71036;51.102;6.514;2023-08-06T01:53:47;5.97;;;2.30;;
81627;SDS011;71036;51.102;6.514;2023-08-06T01:56:12;3.57;;;2.10;;
81627;SDS011;71036;51.102;6.514;2023-08-06T01:58:37;3.83;;;1.80;;
81627;SDS011;71036;51.102;6.514;2023-08-06T02:01:02;2.63;;;1.40;;
81627;SDS011;71036;51.102;6.514;2023-08-06T02:03:28;4.10;;;1.60;;
81627;SDS011;71036;51.102;6.514;2023-08-06T02:05:53;1.50;;;1.00;;
81627;SDS011;71036;51.102;6.514;2023-08-06T02:08:18;3.70;;;1.77;;
81627;SDS011;71036;51.102;6.514;2023-08-06T02:10:44;5.83;;;2.03;;
81627;SDS011;71036;51.102;6.514;2023-08-06T02:13:10;3.90;;;2.07;;
81627;SDS011;71036;51.102;6.514;2023-08-06T02:15:35;2.90;;;1.70;;
81627;SDS011;71036;51.102;6.514;2023-08-06T02:18:00;8.73;;;2.00;;
81627;SDS011;71036;51.102;6.514;2023-08-06T02:20:25;3.17;;;1.80;;
81627;SDS011;71036;51.102;6.514;2023-08-06T02:22:51;8.40;;;1.33;;
81627;SDS011;71036;51.102;6.514;2023-08-06T02:25:16;2.70;;;1.80;;
81627;SDS011;71036;51.102;6.514;2023-08-06T02:27:41;3.00;;;1.80;;
81627;SDS011;71036;51.102;6.514;2023-08-06T02:30:06;9.10;;;1.87;;
81627;SDS011;71036;51.102;6.514;2023-08-06T02:32:32;3.13;;;1.73;;
81627;SDS011;71036;51.102;6.514;2023-08-06T02:35:00;6.83;;;1.80;;
81627;SDS011;71036;51.102;6.514;2023-08-06T02:37:25;9.87;;;2.60;;
81627;SDS011;71036;51.102;6.514;2023-08-06T02:39:51;3.40;;;1.60;;
81627;SDS011;71036;51.102;6.514;2023-08-06T02:42:16;16.43;;;1.57;;
81627;SDS011;71036;51.102;6.514;2023-08-06T02:44:41;2.00;;;1.43;;
81627;SDS011;71036;51.102;6.514;2023-08-06T02:47:06;1.50;;;1.23;;
81627;SDS011;71036;51.102;6.514;2023-08-06T02:49:32;2.10;;;1.47;;
81627;SDS011;71036;51.102;6.514;2023-08-06T02:51:57;2.80;;;2.07;;
81627;SDS011;71036;51.102;6.514;2023-08-06T02:54:22;2.73;;;1.50;;
81627;SDS011;71036;51.102;6.514;2023-08-06T02:56:47;4.10;;;1.50;;
81627;SDS011;71036;51.102;6.514;2023-08-06T02:59:13;2.33;;;1.30;;
81627;SDS011;71036;51.102;6.514;2023-08-06T03:01:38;6.33;;;2.00;;
81627;SDS011;71036;51.102;6.514;2023-08-06T03:04:04;4.43;;;1.77;;
81627;SDS011;71036;51.102;6.514;2023-08-06T03:06:30;2.13;;;1.70;;
81627;SDS011;71036;51.102;6.514;2023-08-06T03:08:55;2.73;;;1.30;;
81627;SDS011;71036;51.102;6.514;2023-08-06T03:11:20;3.00;;;1.63;;
81627;SDS011;71036;51.102;6.514;2023-08-06T03:13:46;7.73;;;1.60;;
81627;SDS011;71036;51.102;6.514;2023-08-06T03:16:12;1.63;;;1.10;;
81627;SDS011;71036;51.102;6.514;2023-08-06T03:18:37;2.47;;;1.00;;
81627;SDS011;71036;51.102;6.514;2023-08-06T03:21:03;2.77;;;1.73;;
81627;SDS011;71036;51.102;6.514;2023-08-06T03:23:28;2.90;;;1.50;;
81627;SDS011;71036;51.102;6.514;2023-08-06T03:25:53;4.27;;;1.13;;
81627;SDS011;71036;51.102;6.514;2023-08-06T03:28:18;2.80;;;1.40;;
81627;SDS011;71036;51.102;6.514;2023-08-06T03:30:44;4.40;;;1.97;;
81627;SDS011;71036;51.102;6.514;2023-08-06T03:33:09;3.03;;;2.00;;
81627;SDS011;71036;51.102;6.514;2023-08-06T03:35:34;4.57;;;1.70;;
81627;SDS011;71036;51.102;6.514;2023-08-06T03:37:59;5.53;;;1.93;;
81627;SDS011;71036;51.102;6.514;2023-08-06T03:40:25;2.33;;;1.10;;
81627;SDS011;71036;51.102;6.514;2023-08-06T03:42:50;7.27;;;1.60;;
81627;SDS011;71036;51.102;6.514;2023-08-06T03:45:15;1.67;;;1.47;;
81627;SDS011;71036;51.102;6.514;2023-08-06T03:47:40;1.67;;;1.20;;
81627;SDS011;71036;51.102;6.514;2023-08-06T03:50:06;10.63;;;1.90;;
81627;SDS011;71036;51.102;6.514;2023-08-06T03:52:31;2.07;;;1.33;;
81627;SDS011;71036;51.102;6.514;2023-08-06T03:54:57;3.50;;;1.93;;
81627;SDS011;71036;51.102;6.514;2023-08-06T03:57:22;5.13;;;2.10;;
81627;SDS011;71036;51.102;6.514;2023-08-06T03:59:47;4.70;;;1.53;;
81627;SDS011;71036;51.102;6.514;2023-08-06T04:02:13;2.83;;;1.67;;
81627;SDS011;71036;51.102;6.514;2023-08-06T04:04:38;4.83;;;1.83;;
81627;SDS011;71036;51.102;6.514;2023-08-06T04:07:03;5.13;;;1.57;;
81627;SDS011;71036;51.102;6.514;2023-08-06T04:09:29;2.77;;;1.90;;
81627;SDS011;71036;51.102;6.514;2023-08-06T04:11:54;3.20;;;1.93;;
81627;SDS011;71036;51.102;6.514;2023-08-06T04:14:20;7.70;;;2.10;;
81627;SDS011;71036;51.102;6.514;2023-08-06T04:16:45;2.63;;;1.97;;
81627;SDS011;71036;51.102;6.514;2023-08-06T04:19:10;6.13;;;2.43;;
81627;SDS011;71036;51.102;6.514;2023-08-06T04:21:36;5.60;;;2.20;;
81627;SDS011;71036;51.102;6.514;2023-08-06T04:24:01;3.77;;;2.03;;
81627;SDS011;71036;51.102;6.514;2023-08-06T04:26:26;1.87;;;1.33;;
81627;SDS011;71036;51.102;6.514;2023-08-06T04:28:52;2.27;;;1.10;;
81627;SDS011;71036;51.102;6.514;2023-08-06T04:31:17;2.23;;;1.17;;
81627;SDS011;71036;51.102;6.514;2023-08-06T04:33:42;1.80;;;1.10;;
81627;SDS011;71036;51.102;6.514;2023-08-06T04:36:08;2.70;;;1.90;;
81627;SDS011;71036;51.102;6.514;2023-08-06T04:38:33;7.50;;;1.63;;
81627;SDS011;71036;51.102;6.514;2023-08-06T04:40:58;4.20;;;1.80;;
81627;SDS011;71036;51.102;6.514;2023-08-06T04:43:23;7.20;;;1.87;;
81627;SDS011;71036;51.102;6.514;2023-08-06T04:45:49;2.30;;;1.57;;
81627;SDS011;71036;51.102;6.514;2023-08-06T04:48:15;1.97;;;1.20;;
81627;SDS011;71036;51.102;6.514;2023-08-06T04:50:44;2.93;;;1.60;;
81627;SDS011;71036;51.102;6.514;2023-08-06T04:53:13;3.03;;;1.40;;
81627;SDS011;71036;51.102;6.514;2023-08-06T04:55:38;4.20;;;1.23;;
81627;SDS011;71036;51.102;6.514;2023-08-06T04:58:04;2.80;;;1.83;;
81627;SDS011;71036;51.102;6.514;2023-08-06T05:00:30;2.10;;;1.33;;
81627;SDS011;71036;51.102;6.514;2023-08-06T05:02:55;2.73;;;1.20;;
81627;SDS011;71036;51.102;6.514;2023-08-06T05:05:20;2.93;;;1.40;;
81627;SDS011;71036;51.102;6.514;2023-08-06T05:07:49;4.23;;;1.80;;
81627;SDS011;71036;51.102;6.514;2023-08-06T05:10:15;7.03;;;1.70;;
81627;SDS011;71036;51.102;6.514;2023-08-06T05:12:40;2.07;;;1.20;;
81627;SDS011;71036;51.102;6.514;2023-08-06T05:15:06;6.40;;;1.93;;
81627;SDS011;71036;51.102;6.514;2023-08-06T05:17:31;4.10;;;1.90;;
81627;SDS011;71036;51.102;6.514;2023-08-06T05:19:56;6.00;;;1.33;;
81627;SDS011;71036;51.102;6.514;2023-08-06T05:22:22;7.33;;;1.57;;
81627;SDS011;71036;51.102;6.514;2023-08-06T05:24:47;7.77;;;2.13;;
81627;SDS011;71036;51.102;6.514;2023-08-06T05:27:13;3.03;;;1.33;;
81627;SDS011;71036;51.102;6.514;2023-08-06T05:29:38;3.70;;;1.50;;
81627;SDS011;71036;51.102;6.514;2023-08-06T05:32:03;3.70;;;1.90;;
81627;SDS011;71036;51.102;6.514;2023-08-06T05:34:29;4.67;;;1.90;;
81627;SDS011;71036;51.102;6.514;2023-08-06T05:36:54;4.33;;;2.23;;
81627;SDS011;71036;51.102;6.514;2023-08-06T05:39:19;3.93;;;2.80;;
81627;SDS011;71036;51.102;6.514;2023-08-06T05:41:45;5.93;;;3.23;;
81627;SDS011;71036;51.102;6.514;2023-08-06T05:44:10;9.17;;;3.10;;
81627;SDS011;71036;51.102;6.514;2023-08-06T05:46:35;6.13;;;3.40;;
81627;SDS011;71036;51.102;6.514;2023-08-06T05:49:00;5.30;;;3.90;;
81627;SDS011;71036;51.102;6.514;2023-08-06T05:51:26;8.97;;;3.57;;
81627;SDS011;71036;51.102;6.514;2023-08-06T05:53:52;5.53;;;2.77;;
81627;SDS011;71036;51.102;6.514;2023-08-06T05:56:17;3.57;;;3.20;;
81627;SDS011;71036;51.102;6.514;2023-08-06T05:58:42;6.17;;;3.43;;
81627;SDS011;71036;51.102;6.514;2023-08-06T06:01:07;4.57;;;2.83;;
81627;SDS011;71036;51.102;6.514;2023-08-06T06:03:33;5.27;;;3.07;;
81627;SDS011;71036;51.102;6.514;2023-08-06T06:05:58;5.77;;;3.67;;
81627;SDS011;71036;51.102;6.514;2023-08-06T06:08:25;4.47;;;2.90;;
81627;SDS011;71036;51.102;6.514;2023-08-06T06:10:51;3.40;;;2.10;;
81627;SDS011;71036;51.102;6.514;2023-08-06T06:13:16;6.33;;;2.10;;
81627;SDS011;71036;51.102;6.514;2023-08-06T06:15:41;3.33;;;2.13;;
81627;SDS011;71036;51.102;6.514;2023-08-06T06:18:06;2.27;;;1.90;;
81627;SDS011;71036;51.102;6.514;2023-08-06T06:20:32;2.00;;;1.10;;
81627;SDS011;71036;51.102;6.514;2023-08-06T06:22:58;1.77;;;1.30;;
81627;SDS011;71036;51.102;6.514;2023-08-06T06:25:23;5.37;;;1.43;;
81627;SDS011;71036;51.102;6.514;2023-08-06T06:27:48;2.13;;;1.40;;
81627;SDS011;71036;51.102;6.514;2023-08-06T06:30:13;1.70;;;1.40;;
81627;SDS011;71036;51.102;6.514;2023-08-06T06:32:39;3.07;;;2.00;;
81627;SDS011;71036;51.102;6.514;2023-08-06T06:35:05;2.73;;;1.50;;
81627;SDS011;71036;51.102;6.514;2023-08-06T06:37:31;2.63;;;1.73;;
81627;SDS011;71036;51.102;6.514;2023-08-06T06:39:56;2.17;;;1.67;;
81627;SDS011;71036;51.102;6.514;2023-08-06T06:42:21;1.57;;;1.20;;
81627;SDS011;71036;51.102;6.514;2023-08-06T06:44:47;2.03;;;1.20;;
81627;SDS011;71036;51.102;6.514;2023-08-06T06:47:13;1.53;;;1.20;;
81627;SDS011;71036;51.102;6.514;2023-08-06T06:49:38;2.43;;;1.50;;
81627;SDS011;71036;51.102;6.514;2023-08-06T06:52:03;1.60;;;1.40;;
81627;SDS011;71036;51.102;6.514;2023-08-06T06:54:29;5.20;;;1.50;;
81627;SDS011;71036;51.102;6.514;2023-08-06T06:56:54;3.70;;;1.60;;
81627;SDS011;71036;51.102;6.514;2023-08-06T06:59:19;6.40;;;1.37;;
81627;SDS011;71036;51.102;6.514;2023-08-06T07:01:45;1.97;;;1.40;;
81627;SDS011;71036;51.102;6.514;2023-08-06T07:04:10;1.37;;;1.10;;
81627;SDS011;71036;51.102;6.514;2023-08-06T07:06:35;1.60;;;1.30;;
81627;SDS011;71036;51.102;6.514;2023-08-06T07:09:00;2.53;;;1.97;;
81627;SDS011;71036;51.102;6.514;2023-08-06T07:11:26;1.57;;;1.00;;
81627;SDS011;71036;51.102;6.514;2023-08-06T07:13:56;1.60;;;1.10;;
81627;SDS011;71036;51.102;6.514;2023-08-06T07:16:23;1.30;;;1.00;;
81627;SDS011;71036;51.102;6.514;2023-08-06T07:18:48;2.67;;;1.33;;
81627;SDS011;71036;51.102;6.514;2023-08-06T07:21:13;2.17;;;1.30;;
81627;SDS011;71036;51.102;6.514;2023-08-06T07:23:39;1.87;;;1.60;;
81627;SDS011;71036;51.102;6.514;2023-08-06T07:26:04;8.60;;;1.70;;
81627;SDS011;71036;51.102;6.514;2023-08-06T07:28:29;2.13;;;1.30;;
81627;SDS011;71036;51.102;6.514;2023-08-06T07:30:54;1.93;;;1.50;;
81627;SDS011;71036;51.102;6.514;2023-08-06T07:33:20;1.20;;;1.00;;
81627;SDS011;71036;51.102;6.514;2023-08-06T07:35:45;3.83;;;1.53;;
81627;SDS011;71036;51.102;6.514;2023-08-06T07:38:10;1.40;;;1.30;;
81627;SDS011;71036;51.102;6.514;2023-08-06T07:40:36;2.87;;;1.90;;
81627;SDS011;71036;51.102;6.514;2023-08-06T07:43:02;2.80;;;1.83;;
81627;SDS011;71036;51.102;6.514;2023-08-06T07:45:31;2.40;;;1.77;;
81627;SDS011;71036;51.102;6.514;2023-08-06T07:47:57;1.90;;;1.60;;
81627;SDS011;71036;51.102;6.514;2023-08-06T07:50:22;1.53;;;1.43;;
81627;SDS011;71036;51.102;6.514;2023-08-06T07:52:48;2.53;;;1.40;;
81627;SDS011;71036;51.102;6.514;2023-08-06T07:55:13;2.30;;;1.30;;
81627;SDS011;71036;51.102;6.514;2023-08-06T07:57:38;1.90;;;1.40;;
81627;SDS011;71036;51.102;6.514;2023-08-06T08:00:04;2.23;;;1.40;;
81627;SDS011;71036;51.102;6.514;2023-08-06T08:02:30;1.40;;;1.20;;
81627;SDS011;71036;51.102;6.514;2023-08-06T08:04:56;2.50;;;1.50;;
81627;SDS011;71036;51.102;6.514;2023-08-06T08:07:21;1.77;;;1.47;;
81627;SDS011;71036;51.102;6.514;2023-08-06T08:09:46;7.73;;;1.50;;
81627;SDS011;71036;51.102;6.514;2023-08-06T08:12:13;1.73;;;1.30;;
81627;SDS011;71036;51.102;6.514;2023-08-06T08:14:38;4.20;;;1.40;;
81627;SDS011;71036;51.102;6.514;2023-08-06T08:17:04;2.53;;;1.30;;
81627;SDS011;71036;51.102;6.514;2023-08-06T08:19:33;1.80;;;1.37;;
81627;SDS011;71036;51.102;6.514;2023-08-06T08:21:58;7.37;;;2.37;;
81627;SDS011;71036;51.102;6.514;2023-08-06T08:24:23;11.63;;;1.60;;
81627;SDS011;71036;51.102;6.514;2023-08-06T08:26:52;2.40;;;1.70;;
81627;SDS011;71036;51.102;6.514;2023-08-06T08:29:21;3.27;;;2.00;;
81627;SDS011;71036;51.102;6.514;2023-08-06T08:31:47;1.90;;;1.80;;
81627;SDS011;71036;51.102;6.514;2023-08-06T08:34:14;3.70;;;1.77;;
81627;SDS011;71036;51.102;6.514;2023-08-06T08:36:40;4.47;;;2.17;;
81627;SDS011;71036;51.102;6.514;2023-08-06T08:39:05;3.20;;;2.30;;
81627;SDS011;71036;51.102;6.514;2023-08-06T08:41:31;2.10;;;1.70;;
81627;SDS011;71036;51.102;6.514;2023-08-06T08:43:56;4.70;;;2.13;;
81627;SDS011;71036;51.102;6.514;2023-08-06T08:46:23;3.13;;;2.40;;
81627;SDS011;71036;51.102;6.514;2023-08-06T08:48:50;2.57;;;1.77;;
81627;SDS011;71036;51.102;6.514;2023-08-06T08:51:16;5.90;;;2.43;;
81627;SDS011;71036;51.102;6.514;2023-08-06T08:53:42;2.73;;;2.27;;
81627;SDS011;71036;51.102;6.514;2023-08-06T08:56:09;3.77;;;2.87;;
81627;SDS011;71036;51.102;6.514;2023-08-06T08:58:36;2.10;;;1.90;;
81627;SDS011;71036;51.102;6.514;2023-08-06T09:01:02;3.10;;;1.90;;
81627;SDS011;71036;51.102;6.514;2023-08-06T09:03:29;1.97;;;1.60;;
81627;SDS011;71036;51.102;6.514;2023-08-06T09:05:55;6.07;;;1.40;;
81627;SDS011;71036;51.102;6.514;2023-08-06T09:08:24;0.80;;;0.60;;
81627;SDS011;71036;51.102;6.514;2023-08-06T09:10:52;1.50;;;0.77;;
81627;SDS011;71036;51.102;6.514;2023-08-06T09:13:18;3.13;;;0.90;;
81627;SDS011;71036;51.102;6.514;2023-08-06T09:15:45;1.00;;;0.80;;
81627;SDS011;71036;51.102;6.514;2023-08-06T09:18:11;1.67;;;0.93;;
81627;SDS011;71036;51.102;6.514;2023-08-06T09:20:37;2.17;;;1.00;;
81627;SDS011;71036;51.102;6.514;2023-08-06T09:23:06;1.70;;;1.30;;
81627;SDS011;71036;51.102;6.514;2023-08-06T09:25:36;1.93;;;1.30;;
81627;SDS011;71036;51.102;6.514;2023-08-06T09:28:05;1.80;;;1.50;;
81627;SDS011;71036;51.102;6.514;2023-08-06T09:30:30;3.70;;;1.70;;
81627;SDS011;71036;51.102;6.514;2023-08-06T09:32:58;4.20;;;1.73;;
81627;SDS011;71036;51.102;6.514;2023-08-06T09:35:23;2.00;;;0.90;;
81627;SDS011;71036;51.102;6.514;2023-08-06T09:37:49;1.43;;;1.03;;
81627;SDS011;71036;51.102;6.514;2023-08-06T09:40:27;2.37;;;1.40;;
81627;SDS011;71036;51.102;6.514;2023-08-06T09:42:57;2.17;;;1.17;;
81627;SDS011;71036;51.102;6.514;2023-08-06T09:45:29;2.63;;;1.80;;
81627;SDS011;71036;51.102;6.514;2023-08-06T09:48:07;2.60;;;1.83;;
81627;SDS011;71036;51.102;6.514;2023-08-06T09:50:34;2.17;;;1.23;;
81627;SDS011;71036;51.102;6.514;2023-08-06T09:53:04;3.00;;;1.70;;
81627;SDS011;71036;51.102;6.514;2023-08-06T09:55:31;2.77;;;1.90;;
81627;SDS011;71036;51.102;6.514;2023-08-06T09:57:58;3.77;;;2.40;;
81627;SDS011;71036;51.102;6.514;2023-08-06T10:00:24;4.87;;;2.77;;
81627;SDS011;71036;51.102;6.514;2023-08-06T10:02:49;3.90;;;2.97;;
81627;SDS011;71036;51.102;6.514;2023-08-06T10:05:19;4.70;;;3.20;;
81627;SDS011;71036;51.102;6.514;2023-08-06T10:07:44;6.80;;;3.43;;
81627;SDS011;71036;51.102;6.514;2023-08-06T10:10:11;6.23;;;2.97;;
81627;SDS011;71036;51.102;6.514;2023-08-06T10:12:40;4.57;;;2.70;;
81627;SDS011;71036;51.102;6.514;2023-08-06T10:15:10;4.50;;;2.60;;
81627;SDS011;71036;51.102;6.514;2023-08-06T10:17:38;5.30;;;3.03;;
81627;SDS011;71036;51.102;6.514;2023-08-06T10:20:05;4.80;;;2.67;;
81627;SDS011;71036;51.102;6.514;2023-08-06T10:22:33;3.20;;;2.37;;
81627;SDS011;71036;51.102;6.514;2023-08-06T10:24:59;3.50;;;1.83;;
81627;SDS011;71036;51.102;6.514;2023-08-06T10:27:31;2.90;;;1.50;;
81627;SDS011;71036;51.102;6.514;2023-08-06T10:30:41;2.03;;;1.40;;
81627;SDS011;71036;51.102;6.514;2023-08-06T10:32:46;3.47;;;1.67;;
81627;SDS011;71036;51.102;6.514;2023-08-06T10:35:27;7.60;;;2.00;;
81627;SDS011;71036;51.102;6.514;2023-08-06T10:37:57;4.20;;;2.17;;
81627;SDS011;71036;51.102;6.514;2023-08-06T10:40:23;6.57;;;2.57;;
81627;SDS011;71036;51.102;6.514;2023-08-06T10:42:49;8.27;;;2.63;;
81627;SDS011;71036;51.102;6.514;2023-08-06T10:45:15;14.20;;;2.60;;
81627;SDS011;71036;51.102;6.514;2023-08-06T10:47:44;6.83;;;3.07;;
81627;SDS011;71036;51.102;6.514;2023-08-06T10:50:12;9.80;;;3.60;;
81627;SDS011;71036;51.102;6.514;2023-08-06T10:52:39;9.97;;;2.77;;
81627;SDS011;71036;51.102;6.514;2023-08-06T10:55:04;9.77;;;3.70;;
81627;SDS011;71036;51.102;6.514;2023-08-06T10:57:30;14.83;;;3.13;;
81627;SDS011;71036;51.102;6.514;2023-08-06T10:59:55;8.63;;;3.23;;
81627;SDS011;71036;51.102;6.514;2023-08-06T11:02:21;11.77;;;3.30;;
81627;SDS011;71036;51.102;6.514;2023-08-06T11:04:46;6.87;;;3.07;;
81627;SDS011;71036;51.102;6.514;2023-08-06T11:07:13;6.60;;;3.43;;
81627;SDS011;71036;51.102;6.514;2023-08-06T11:09:38;6.43;;;3.07;;
81627;SDS011;71036;51.102;6.514;2023-08-06T11:12:08;14.50;;;3.40;;
81627;SDS011;71036;51.102;6.514;2023-08-06T11:14:34;4.27;;;2.47;;
81627;SDS011;71036;51.102;6.514;2023-08-06T11:17:00;2.50;;;2.30;;
81627;SDS011;71036;51.102;6.514;2023-08-06T11:19:25;4.60;;;2.13;;
81627;SDS011;71036;51.102;6.514;2023-08-06T11:21:51;6.10;;;2.40;;
81627;SDS011;71036;51.102;6.514;2023-08-06T11:24:16;8.90;;;2.87;;
81627;SDS011;71036;51.102;6.514;2023-08-06T11:26:42;3.40;;;2.80;;
81627;SDS011;71036;51.102;6.514;2023-08-06T11:29:09;6.37;;;2.90;;
81627;SDS011;71036;51.102;6.514;2023-08-06T11:31:35;5.63;;;3.23;;
81627;SDS011;71036;51.102;6.514;2023-08-06T11:34:01;5.17;;;2.97;;
81627;SDS011;71036;51.102;6.514;2023-08-06T11:36:30;7.70;;;2.40;;
81627;SDS011;71036;51.102;6.514;2023-08-06T11:38:57;10.40;;;2.70;;
81627;SDS011;71036;51.102;6.514;2023-08-06T11:41:23;8.40;;;2.20;;
81627;SDS011;71036;51.102;6.514;2023-08-06T11:43:48;3.20;;;2.90;;
81627;SDS011;71036;51.102;6.514;2023-08-06T11:46:13;8.47;;;2.70;;
81627;SDS011;71036;51.102;6.514;2023-08-06T11:48:52;5.57;;;2.10;;
81627;SDS011;71036;51.102;6.514;2023-08-06T11:51:17;2.73;;;1.50;;
81627;SDS011;71036;51.102;6.514;2023-08-06T11:53:46;6.50;;;1.90;;
81627;SDS011;71036;51.102;6.514;2023-08-06T11:56:13;6.90;;;2.00;;
81627;SDS011;71036;51.102;6.514;2023-08-06T11:58:40;3.70;;;1.87;;
81627;SDS011;71036;51.102;6.514;2023-08-06T12:01:06;1.83;;;1.60;;
81627;SDS011;71036;51.102;6.514;2023-08-06T12:03:31;3.07;;;1.40;;
81627;SDS011;71036;51.102;6.514;2023-08-06T12:05:57;3.00;;;1.27;;
81627;SDS011;71036;51.102;6.514;2023-08-06T12:08:26;2.77;;;1.63;;
81627;SDS011;71036;51.102;6.514;2023-08-06T12:10:51;3.60;;;1.70;;
81627;SDS011;71036;51.102;6.514;2023-08-06T12:13:18;4.73;;;1.73;;
81627;SDS011;71036;51.102;6.514;2023-08-06T12:15:44;2.80;;;1.43;;
81627;SDS011;71036;51.102;6.514;2023-08-06T12:18:10;6.93;;;1.40;;
81627;SDS011;71036;51.102;6.514;2023-08-06T12:20:35;4.50;;;1.30;;
81627;SDS011;71036;51.102;6.514;2023-08-06T12:23:01;3.90;;;1.43;;
81627;SDS011;71036;51.102;6.514;2023-08-06T12:25:26;1.93;;;1.33;;
81627;SDS011;71036;51.102;6.514;2023-08-06T12:27:51;3.20;;;1.50;;
81627;SDS011;71036;51.102;6.514;2023-08-06T12:30:17;5.07;;;1.50;;
81627;SDS011;71036;51.102;6.514;2023-08-06T12:32:42;6.30;;;1.10;;
81627;SDS011;71036;51.102;6.514;2023-08-06T12:35:07;4.73;;;1.57;;
81627;SDS011;71036;51.102;6.514;2023-08-06T12:37:34;8.33;;;1.83;;
81627;SDS011;71036;51.102;6.514;2023-08-06T12:39:59;3.60;;;1.73;;
81627;SDS011;71036;51.102;6.514;2023-08-06T12:42:25;7.33;;;1.80;;
81627;SDS011;71036;51.102;6.514;2023-08-06T12:44:50;5.00;;;1.80;;
81627;SDS011;71036;51.102;6.514;2023-08-06T12:47:16;4.23;;;1.57;;
81627;SDS011;71036;51.102;6.514;2023-08-06T12:49:42;5.20;;;1.80;;
81627;SDS011;71036;51.102;6.514;2023-08-06T12:52:07;5.30;;;1.73;;
81627;SDS011;71036;51.102;6.514;2023-08-06T12:54:34;9.03;;;2.10;;
81627;SDS011;71036;51.102;6.514;2023-08-06T12:57:02;7.00;;;1.70;;
81627;SDS011;71036;51.102;6.514;2023-08-06T12:59:28;3.60;;;1.70;;
81627;SDS011;71036;51.102;6.514;2023-08-06T13:01:53;8.23;;;2.40;;
81627;SDS011;71036;51.102;6.514;2023-08-06T13:04:18;7.57;;;1.47;;
81627;SDS011;71036;51.102;6.514;2023-08-06T13:06:44;4.40;;;2.10;;
81627;SDS011;71036;51.102;6.514;2023-08-06T13:09:09;2.50;;;1.40;;
81627;SDS011;71036;51.102;6.514;2023-08-06T13:11:35;6.77;;;2.30;;
81627;SDS011;71036;51.102;6.514;2023-08-06T13:14:10;5.07;;;1.87;;
81627;SDS011;71036;51.102;6.514;2023-08-06T13:16:38;4.03;;;2.93;;
81627;SDS011;71036;51.102;6.514;2023-08-06T13:19:05;6.27;;;2.77;;
81627;SDS011;71036;51.102;6.514;2023-08-06T13:21:35;3.30;;;2.43;;
81627;SDS011;71036;51.102;6.514;2023-08-06T13:24:20;7.93;;;2.30;;
81627;SDS011;71036;51.102;6.514;2023-08-06T13:26:46;2.57;;;2.37;;
81627;SDS011;71036;51.102;6.514;2023-08-06T13:29:11;8.13;;;2.37;;
81627;SDS011;71036;51.102;6.514;2023-08-06T13:31:36;10.30;;;2.73;;
81627;SDS011;71036;51.102;6.514;2023-08-06T13:34:02;8.40;;;2.80;;
81627;SDS011;71036;51.102;6.514;2023-08-06T13:36:27;5.47;;;2.53;;
81627;SDS011;71036;51.102;6.514;2023-08-06T13:38:53;2.60;;;1.80;;
81627;SDS011;71036;51.102;6.514;2023-08-06T13:41:18;5.50;;;2.67;;
81627;SDS011;71036;51.102;6.514;2023-08-06T13:43:44;9.83;;;3.30;;
81627;SDS011;71036;51.102;6.514;2023-08-06T13:46:10;5.53;;;2.60;;
81627;SDS011;71036;51.102;6.514;2023-08-06T13:48:40;8.00;;;2.50;;
81627;SDS011;71036;51.102;6.514;2023-08-06T13:51:05;4.30;;;2.73;;
81627;SDS011;71036;51.102;6.514;2023-08-06T13:53:31;8.27;;;2.87;;
81627;SDS011;71036;51.102;6.514;2023-08-06T13:55:56;6.60;;;1.13;;
81627;SDS011;71036;51.102;6.514;2023-08-06T13:58:22;3.23;;;1.73;;
81627;SDS011;71036;51.102;6.514;2023-08-06T14:00:48;8.43;;;2.07;;
81627;SDS011;71036;51.102;6.514;2023-08-06T14:03:14;3.37;;;1.93;;
81627;SDS011;71036;51.102;6.514;2023-08-06T14:05:39;6.00;;;1.53;;
81627;SDS011;71036;51.102;6.514;2023-08-06T14:08:04;3.87;;;2.30;;
81627;SDS011;71036;51.102;6.514;2023-08-06T14:10:30;5.90;;;3.73;;
81627;SDS011;71036;51.102;6.514;2023-08-06T14:12:55;12.40;;;1.90;;
81627;SDS011;71036;51.102;6.514;2023-08-06T14:15:20;4.93;;;2.30;;
81627;SDS011;71036;51.102;6.514;2023-08-06T14:17:46;15.47;;;3.30;;
81627;SDS011;71036;51.102;6.514;2023-08-06T14:20:11;7.10;;;1.97;;
81627;SDS011;71036;51.102;6.514;2023-08-06T14:22:37;5.90;;;2.10;;
81627;SDS011;71036;51.102;6.514;2023-08-06T14:25:02;9.90;;;2.00;;
81627;SDS011;71036;51.102;6.514;2023-08-06T14:27:28;7.77;;;1.80;;
81627;SDS011;71036;51.102;6.514;2023-08-06T14:29:53;16.80;;;1.83;;
81627;SDS011;71036;51.102;6.514;2023-08-06T14:32:18;5.27;;;1.77;;
81627;SDS011;71036;51.102;6.514;2023-08-06T14:34:44;7.13;;;1.90;;
81627;SDS011;71036;51.102;6.514;2023-08-06T14:37:10;2.60;;;1.50;;
81627;SDS011;71036;51.102;6.514;2023-08-06T14:39:35;4.07;;;1.47;;
81627;SDS011;71036;51.102;6.514;2023-08-06T14:42:01;8.07;;;3.37;;
81627;SDS011;71036;51.102;6.514;2023-08-06T14:44:27;4.60;;;1.23;;
81627;SDS011;71036;51.102;6.514;2023-08-06T14:46:52;4.30;;;1.40;;
81627;SDS011;71036;51.102;6.514;2023-08-06T14:49:17;1.77;;;1.10;;